sensor_id;sensor_type;location;lat;lon;timestamp;pressure;altitude;pressure_sealevel;temperature;humidity
26531;BME280;14201;43.188;24.160;2023-05-23T00:02:03;99441.84;;;15.41;91.74
26531;BME280;14201;43.188;24.160;2023-05-23T00:04:32;99434.81;;;15.40;91.56
26531;BME280;14201;43.188;24.160;2023-05-23T00:06:58;99433.50;;;15.18;92.82
26531;BME280;14201;43.188;24.160;2023-05-23T00:09:23;99423.06;;;15.21;92.96
26531;BME280;14201;43.188;24.160;2023-05-23T00:11:48;99424.88;;;15.25;92.20
26531;BME280;14201;43.188;24.160;2023-05-23T00:14:14;99423.56;;;15.03;93.73
26531;BME280;14201;43.188;24.160;2023-05-23T00:16:40;99419.09;;;14.98;94.50
26531;BME280;14201;43.188;24.160;2023-05-23T00:19:07;99423.38;;;14.94;94.31
26531;BME280;14201;43.188;24.160;2023-05-23T00:21:32;99418.09;;;14.92;95.13
26531;BME280;14201;43.188;24.160;2023-05-23T00:23:58;99426.81;;;14.91;95.11
26531;BME280;14201;43.188;24.160;2023-05-23T00:26:23;99425.97;;;14.92;95.82
26531;BME280;14201;43.188;24.160;2023-05-23T00:28:49;99422.16;;;14.78;96.16
26531;BME280;14201;43.188;24.160;2023-05-23T00:31:14;99413.22;;;14.68;97.69
26531;BME280;14201;43.188;24.160;2023-05-23T00:33:39;99418.53;;;14.71;98.04
26531;BME280;14201;43.188;24.160;2023-05-23T00:36:06;99423.88;;;14.76;96.76
26531;BME280;14201;43.188;24.160;2023-05-23T00:38:31;99427.78;;;14.95;95.74
26531;BME280;14201;43.188;24.160;2023-05-23T00:40:57;99415.75;;;15.05;94.61
26531;BME280;14201;43.188;24.160;2023-05-23T00:43:22;99418.25;;;15.00;94.37
26531;BME280;14201;43.188;24.160;2023-05-23T00:45:47;99420.59;;;14.86;95.59
26531;BME280;14201;43.188;24.160;2023-05-23T00:48:13;99425.50;;;14.71;96.03
26531;BME280;14201;43.188;24.160;2023-05-23T00:50:38;99422.75;;;14.65;96.55
26531;BME280;14201;43.188;24.160;2023-05-23T00:53:04;99414.78;;;14.62;97.38
26531;BME280;14201;43.188;24.160;2023-05-23T00:55:30;99425.03;;;14.51;97.73
26531;BME280;14201;43.188;24.160;2023-05-23T00:57:55;99420.63;;;14.50;98.29
26531;BME280;14201;43.188;24.160;2023-05-23T01:00:24;99430.22;;;14.49;98.52
26531;BME280;14201;43.188;24.160;2023-05-23T01:02:50;99417.16;;;14.51;98.01
26531;BME280;14201;43.188;24.160;2023-05-23T01:05:16;99416.13;;;14.44;98.66
26531;BME280;14201;43.188;24.160;2023-05-23T01:07:42;99424.94;;;14.48;97.98
26531;BME280;14201;43.188;24.160;2023-05-23T01:10:07;99425.72;;;14.44;98.37
26531;BME280;14201;43.188;24.160;2023-05-23T01:15:06;99430.03;;;14.42;98.30
26531;BME280;14201;43.188;24.160;2023-05-23T01:20:24;99419.97;;;14.22;99.81
26531;BME280;14201;43.188;24.160;2023-05-23T01:28:11;99414.66;;;13.83;100.00
26531;BME280;14201;43.188;24.160;2023-05-23T01:30:39;99410.94;;;13.74;100.00
26531;BME280;14201;43.188;24.160;2023-05-23T01:33:05;99413.59;;;13.76;100.00
26531;BME280;14201;43.188;24.160;2023-05-23T01:35:31;99412.91;;;13.83;100.00
26531;BME280;14201;43.188;24.160;2023-05-23T01:37:57;99416.47;;;13.85;100.00
26531;BME280;14201;43.188;24.160;2023-05-23T01:40:23;99410.25;;;13.82;100.00
26531;BME280;14201;43.188;24.160;2023-05-23T01:42:49;99404.28;;;13.87;100.00
26531;BME280;14201;43.188;24.160;2023-05-23T01:45:15;99411.19;;;13.84;100.00
26531;BME280;14201;43.188;24.160;2023-05-23T01:47:41;99413.22;;;13.94;100.00
26531;BME280;14201;43.188;24.160;2023-05-23T01:50:07;99412.34;;;13.95;100.00
26531;BME280;14201;43.188;24.160;2023-05-23T01:52:33;99405.34;;;13.95;99.50
26531;BME280;14201;43.188;24.160;2023-05-23T01:54:59;99411.41;;;13.93;99.88
26531;BME280;14201;43.188;24.160;2023-05-23T01:57:25;99411.81;;;14.08;98.80
26531;BME280;14201;43.188;24.160;2023-05-23T01:59:53;99415.09;;;14.01;98.05
26531;BME280;14201;43.188;24.160;2023-05-23T02:02:19;99411.69;;;14.04;97.71
26531;BME280;14201;43.188;24.160;2023-05-23T02:04:44;99413.59;;;13.76;99.52
26531;BME280;14201;43.188;24.160;2023-05-23T02:07:09;99405.59;;;13.70;100.00
26531;BME280;14201;43.188;24.160;2023-05-23T02:09:35;99406.94;;;13.54;100.00
26531;BME280;14201;43.188;24.160;2023-05-23T02:12:00;99409.56;;;13.54;100.00
26531;BME280;14201;43.188;24.160;2023-05-23T02:14:26;99408.63;;;13.52;100.00
26531;BME280;14201;43.188;24.160;2023-05-23T02:16:53;99413.81;;;13.50;100.00
26531;BME280;14201;43.188;24.160;2023-05-23T02:19:18;99410.56;;;13.59;99.72
26531;BME280;14201;43.188;24.160;2023-05-23T02:21:44;99411.44;;;13.59;99.14
26531;BME280;14201;43.188;24.160;2023-05-23T02:24:09;99409.81;;;13.63;99.46
26531;BME280;14201;43.188;24.160;2023-05-23T02:26:35;99410.38;;;13.53;98.96
26531;BME280;14201;43.188;24.160;2023-05-23T02:29:01;99418.78;;;13.73;98.39
26531;BME280;14201;43.188;24.160;2023-05-23T02:31:26;99428.44;;;13.75;97.55
26531;BME280;14201;43.188;24.160;2023-05-23T02:33:52;99422.13;;;13.67;98.91
26531;BME280;14201;43.188;24.160;2023-05-23T02:36:17;99417.56;;;13.60;98.73
26531;BME280;14201;43.188;24.160;2023-05-23T02:38:46;99421.03;;;13.59;99.39
26531;BME280;14201;43.188;24.160;2023-05-23T02:41:11;99419.09;;;13.52;100.00
26531;BME280;14201;43.188;24.160;2023-05-23T02:43:36;99418.47;;;13.62;100.00
26531;BME280;14201;43.188;24.160;2023-05-23T02:46:02;99423.03;;;13.69;99.61
26531;BME280;14201;43.188;24.160;2023-05-23T02:48:28;99422.56;;;13.86;97.69
26531;BME280;14201;43.188;24.160;2023-05-23T02:50:53;99417.63;;;13.96;97.31
26531;BME280;14201;43.188;24.160;2023-05-23T02:53:18;99413.41;;;14.02;97.68
26531;BME280;14201;43.188;24.160;2023-05-23T02:55:44;99414.31;;;14.04;96.38
26531;BME280;14201;43.188;24.160;2023-05-23T02:58:09;99418.97;;;14.15;95.53
26531;BME280;14201;43.188;24.160;2023-05-23T03:00:35;99417.38;;;14.22;95.32
26531;BME280;14201;43.188;24.160;2023-05-23T03:03:01;99411.50;;;13.96;97.22
26531;BME280;14201;43.188;24.160;2023-05-23T03:05:26;99413.53;;;13.73;99.90
26531;BME280;14201;43.188;24.160;2023-05-23T03:07:51;99404.44;;;13.58;100.00
26531;BME280;14201;43.188;24.160;2023-05-23T03:10:18;99405.97;;;13.50;100.00
26531;BME280;14201;43.188;24.160;2023-05-23T03:12:44;99415.81;;;13.59;100.00
26531;BME280;14201;43.188;24.160;2023-05-23T03:15:10;99412.47;;;13.66;100.00
26531;BME280;14201;43.188;24.160;2023-05-23T03:17:35;99412.47;;;13.66;100.00
26531;BME280;14201;43.188;24.160;2023-05-23T03:20:01;99423.31;;;13.47;100.00
26531;BME280;14201;43.188;24.160;2023-05-23T03:22:27;99418.06;;;13.47;100.00
26531;BME280;14201;43.188;24.160;2023-05-23T03:24:53;99412.78;;;13.45;100.00
26531;BME280;14201;43.188;24.160;2023-05-23T03:27:18;99422.53;;;13.51;100.00
26531;BME280;14201;43.188;24.160;2023-05-23T03:29:43;99425.28;;;13.55;100.00
26531;BME280;14201;43.188;24.160;2023-05-23T03:32:09;99418.28;;;13.54;100.00
26531;BME280;14201;43.188;24.160;2023-05-23T03:34:35;99426.91;;;13.50;100.00
26531;BME280;14201;43.188;24.160;2023-05-23T03:37:00;99436.53;;;13.53;100.00
26531;BME280;14201;43.188;24.160;2023-05-23T03:39:26;99437.66;;;13.61;100.00
26531;BME280;14201;43.188;24.160;2023-05-23T03:41:51;99440.47;;;13.69;100.00
26531;BME280;14201;43.188;24.160;2023-05-23T03:44:16;99442.59;;;13.84;99.65
26531;BME280;14201;43.188;24.160;2023-05-23T03:46:42;99444.63;;;13.95;98.52
26531;BME280;14201;43.188;24.160;2023-05-23T03:49:07;99449.19;;;14.03;97.37
26531;BME280;14201;43.188;24.160;2023-05-23T03:51:32;99452.97;;;14.14;96.95
26531;BME280;14201;43.188;24.160;2023-05-23T03:53:58;99451.84;;;14.39;95.12
26531;BME280;14201;43.188;24.160;2023-05-23T03:56:23;99461.94;;;14.59;94.00
26531;BME280;14201;43.188;24.160;2023-05-23T03:58:50;99463.06;;;14.70;93.32
26531;BME280;14201;43.188;24.160;2023-05-23T04:01:16;99461.44;;;14.76;93.05
26531;BME280;14201;43.188;24.160;2023-05-23T04:03:42;99460.50;;;14.73;93.37
26531;BME280;14201;43.188;24.160;2023-05-23T04:06:07;99459.75;;;14.79;93.29
26531;BME280;14201;43.188;24.160;2023-05-23T04:08:33;99464.94;;;14.75;94.31
26531;BME280;14201;43.188;24.160;2023-05-23T04:11:01;99459.38;;;14.62;95.63
26531;BME280;14201;43.188;24.160;2023-05-23T04:13:26;99465.59;;;14.67;95.47
26531;BME280;14201;43.188;24.160;2023-05-23T04:15:52;99466.66;;;14.75;95.11
26531;BME280;14201;43.188;24.160;2023-05-23T04:18:20;99462.84;;;14.99;93.63
26531;BME280;14201;43.188;24.160;2023-05-23T04:20:46;99467.47;;;15.12;92.69
26531;BME280;14201;43.188;24.160;2023-05-23T04:23:11;99458.34;;;15.35;92.59
26531;BME280;14201;43.188;24.160;2023-05-23T04:25:37;99459.38;;;15.44;92.70
26531;BME280;14201;43.188;24.160;2023-05-23T04:28:03;99468.16;;;15.46;91.56
26531;BME280;14201;43.188;24.160;2023-05-23T04:30:29;99465.63;;;15.50;91.90
26531;BME280;14201;43.188;24.160;2023-05-23T04:32:55;99472.84;;;15.62;91.51
26531;BME280;14201;43.188;24.160;2023-05-23T04:35:22;99474.66;;;15.66;90.39
26531;BME280;14201;43.188;24.160;2023-05-23T04:37:47;99475.66;;;15.71;90.06
26531;BME280;14201;43.188;24.160;2023-05-23T04:40:13;99471.13;;;15.63;90.55
26531;BME280;14201;43.188;24.160;2023-05-23T04:42:38;99462.59;;;15.73;91.03
26531;BME280;14201;43.188;24.160;2023-05-23T04:45:06;99458.31;;;15.80;90.55
26531;BME280;14201;43.188;24.160;2023-05-23T04:47:32;99462.84;;;15.87;91.68
26531;BME280;14201;43.188;24.160;2023-05-23T04:49:58;99459.50;;;15.97;90.08
26531;BME280;14201;43.188;24.160;2023-05-23T04:52:24;99457.03;;;16.06;89.07
26531;BME280;14201;43.188;24.160;2023-05-23T04:54:51;99462.38;;;16.09;90.13
26531;BME280;14201;43.188;24.160;2023-05-23T04:57:18;99463.53;;;16.27;88.28
26531;BME280;14201;43.188;24.160;2023-05-23T04:59:43;99467.09;;;16.30;89.72
26531;BME280;14201;43.188;24.160;2023-05-23T05:02:09;99473.28;;;16.36;89.29
26531;BME280;14201;43.188;24.160;2023-05-23T05:04:34;99466.41;;;16.44;89.73
26531;BME280;14201;43.188;24.160;2023-05-23T05:07:00;99469.34;;;16.62;89.22
26531;BME280;14201;43.188;24.160;2023-05-23T05:09:28;99466.88;;;16.74;88.61
26531;BME280;14201;43.188;24.160;2023-05-23T05:11:54;99466.34;;;16.96;87.76
26531;BME280;14201;43.188;24.160;2023-05-23T05:14:19;99458.81;;;17.25;87.22
26531;BME280;14201;43.188;24.160;2023-05-23T05:16:45;99456.53;;;17.52;85.81
26531;BME280;14201;43.188;24.160;2023-05-23T05:19:13;99457.59;;;17.71;84.29
26531;BME280;14201;43.188;24.160;2023-05-23T05:21:38;99463.03;;;17.87;81.92
26531;BME280;14201;43.188;24.160;2023-05-23T05:24:04;99459.59;;;17.94;84.20
26531;BME280;14201;43.188;24.160;2023-05-23T05:26:29;99447.53;;;18.19;83.02
26531;BME280;14201;43.188;24.160;2023-05-23T05:28:55;99454.72;;;18.39;83.51
26531;BME280;14201;43.188;24.160;2023-05-23T05:31:21;99454.78;;;18.46;80.33
26531;BME280;14201;43.188;24.160;2023-05-23T05:33:47;99464.66;;;18.75;78.99
26531;BME280;14201;43.188;24.160;2023-05-23T05:36:12;99460.34;;;18.88;79.69
26531;BME280;14201;43.188;24.160;2023-05-23T05:38:38;99462.13;;;18.94;81.30
26531;BME280;14201;43.188;24.160;2023-05-23T05:41:04;99466.72;;;19.30;79.58
26531;BME280;14201;43.188;24.160;2023-05-23T05:43:30;99459.69;;;19.35;78.98
26531;BME280;14201;43.188;24.160;2023-05-23T05:45:56;99469.47;;;19.61;78.24
26531;BME280;14201;43.188;24.160;2023-05-23T05:48:21;99474.81;;;19.72;75.63
26531;BME280;14201;43.188;24.160;2023-05-23T05:50:47;99479.22;;;19.85;75.02
26531;BME280;14201;43.188;24.160;2023-05-23T05:53:12;99475.75;;;19.89;74.94
26531;BME280;14201;43.188;24.160;2023-05-23T05:55:38;99479.28;;;20.03;76.90
26531;BME280;14201;43.188;24.160;2023-05-23T05:58:04;99482.81;;;20.21;74.53
26531;BME280;14201;43.188;24.160;2023-05-23T06:00:30;99480.16;;;20.47;75.19
26531;BME280;14201;43.188;24.160;2023-05-23T06:02:56;99481.06;;;20.54;72.37
26531;BME280;14201;43.188;24.160;2023-05-23T06:05:22;99477.53;;;20.58;71.36
26531;BME280;14201;43.188;24.160;2023-05-23T06:07:48;99474.00;;;20.73;72.63
26531;BME280;14201;43.188;24.160;2023-05-23T06:10:14;99479.28;;;20.82;69.73
26531;BME280;14201;43.188;24.160;2023-05-23T06:12:40;99475.78;;;20.78;70.69
26531;BME280;14201;43.188;24.160;2023-05-23T06:15:06;99473.06;;;21.00;69.49
26531;BME280;14201;43.188;24.160;2023-05-23T06:17:32;99469.41;;;21.32;69.50
26531;BME280;14201;43.188;24.160;2023-05-23T06:19:58;99475.47;;;21.65;69.76
26531;BME280;14201;43.188;24.160;2023-05-23T06:22:23;99472.59;;;22.00;67.27
26531;BME280;14201;43.188;24.160;2023-05-23T06:24:49;99482.09;;;22.39;66.99
26531;BME280;14201;43.188;24.160;2023-05-23T06:27:14;99478.19;;;22.76;65.34
26531;BME280;14201;43.188;24.160;2023-05-23T06:29:40;99480.50;;;23.13;63.51
26531;BME280;14201;43.188;24.160;2023-05-23T06:32:06;99486.13;;;23.59;58.52
26531;BME280;14201;43.188;24.160;2023-05-23T06:34:31;99477.72;;;23.90;59.58
26531;BME280;14201;43.188;24.160;2023-05-23T06:36:57;99481.69;;;24.22;57.79
26531;BME280;14201;43.188;24.160;2023-05-23T06:39:23;99477.31;;;24.72;58.79
26531;BME280;14201;43.188;24.160;2023-05-23T06:41:48;99480.44;;;24.96;57.85
26531;BME280;14201;43.188;24.160;2023-05-23T06:44:14;99472.88;;;25.18;57.07
26531;BME280;14201;43.188;24.160;2023-05-23T06:46:42;99476.03;;;25.40;56.52
26531;BME280;14201;43.188;24.160;2023-05-23T06:49:07;99473.06;;;25.56;51.90
26531;BME280;14201;43.188;24.160;2023-05-23T06:51:33;99472.81;;;25.65;51.29
26531;BME280;14201;43.188;24.160;2023-05-23T06:53:58;99473.16;;;25.90;53.63
26531;BME280;14201;43.188;24.160;2023-05-23T06:56:24;99471.78;;;25.72;52.13
26531;BME280;14201;43.188;24.160;2023-05-23T06:58:50;99470.31;;;25.15;55.06
26531;BME280;14201;43.188;24.160;2023-05-23T07:01:16;99460.38;;;25.23;52.19
26531;BME280;14201;43.188;24.160;2023-05-23T07:03:41;99469.97;;;25.74;52.17
26531;BME280;14201;43.188;24.160;2023-05-23T07:06:09;99466.63;;;26.05;51.08
26531;BME280;14201;43.188;24.160;2023-05-23T07:08:35;99467.66;;;26.35;50.85
26531;BME280;14201;43.188;24.160;2023-05-23T07:11:00;99463.53;;;26.22;49.70
26531;BME280;14201;43.188;24.160;2023-05-23T07:13:26;99461.06;;;26.14;50.71
26531;BME280;14201;43.188;24.160;2023-05-23T07:15:51;99457.72;;;26.04;51.14
26531;BME280;14201;43.188;24.160;2023-05-23T07:18:17;99453.03;;;25.77;50.42
26531;BME280;14201;43.188;24.160;2023-05-23T07:20:43;99451.59;;;25.60;50.79
26531;BME280;14201;43.188;24.160;2023-05-23T07:23:08;99452.22;;;25.71;49.58
26531;BME280;14201;43.188;24.160;2023-05-23T07:25:34;99451.22;;;26.16;48.98
26531;BME280;14201;43.188;24.160;2023-05-23T07:27:59;99456.41;;;26.22;47.89
26531;BME280;14201;43.188;24.160;2023-05-23T07:30:25;99452.06;;;26.54;49.07
26531;BME280;14201;43.188;24.160;2023-05-23T07:32:51;99449.91;;;26.68;47.76
26531;BME280;14201;43.188;24.160;2023-05-23T07:35:17;99453.38;;;27.05;47.72
26531;BME280;14201;43.188;24.160;2023-05-23T07:37:43;99447.84;;;27.42;46.00
26531;BME280;14201;43.188;24.160;2023-05-23T07:40:09;99447.78;;;27.74;45.32
26531;BME280;14201;43.188;24.160;2023-05-23T07:42:34;99446.69;;;28.09;45.91
26531;BME280;14201;43.188;24.160;2023-05-23T07:45:00;99440.16;;;28.44;47.27
26531;BME280;14201;43.188;24.160;2023-05-23T07:47:26;99446.19;;;28.78;45.63
26531;BME280;14201;43.188;24.160;2023-05-23T07:49:51;99438.66;;;29.14;43.43
26531;BME280;14201;43.188;24.160;2023-05-23T07:52:17;99442.13;;;29.40;42.71
26531;BME280;14201;43.188;24.160;2023-05-23T07:54:42;99443.63;;;29.72;43.05
26531;BME280;14201;43.188;24.160;2023-05-23T07:57:08;99444.63;;;29.92;43.12
26531;BME280;14201;43.188;24.160;2023-05-23T07:59:34;99443.69;;;30.15;42.79
26531;BME280;14201;43.188;24.160;2023-05-23T08:02:00;99440.66;;;30.45;41.05
26531;BME280;14201;43.188;24.160;2023-05-23T08:04:25;99445.69;;;30.32;40.61
26531;BME280;14201;43.188;24.160;2023-05-23T08:06:51;99443.97;;;30.29;42.00
26531;BME280;14201;43.188;24.160;2023-05-23T08:09:17;99445.03;;;30.47;41.82
26531;BME280;14201;43.188;24.160;2023-05-23T08:11:43;99442.03;;;30.75;40.75
26531;BME280;14201;43.188;24.160;2023-05-23T08:14:08;99448.91;;;31.03;38.58
26531;BME280;14201;43.188;24.160;2023-05-23T08:16:34;99446.16;;;30.19;39.47
26531;BME280;14201;43.188;24.160;2023-05-23T08:19:01;99436.31;;;29.03;40.84
26531;BME280;14201;43.188;24.160;2023-05-23T08:21:27;99440.31;;;27.85;42.54
26531;BME280;14201;43.188;24.160;2023-05-23T08:23:52;99442.47;;;27.72;42.50
26531;BME280;14201;43.188;24.160;2023-05-23T08:26:18;99436.28;;;27.42;42.81
26531;BME280;14201;43.188;24.160;2023-05-23T08:28:43;99424.03;;;27.33;44.89
26531;BME280;14201;43.188;24.160;2023-05-23T08:31:09;99432.59;;;27.15;42.63
26531;BME280;14201;43.188;24.160;2023-05-23T08:33:36;99425.66;;;27.68;42.21
26531;BME280;14201;43.188;24.160;2023-05-23T08:36:01;99430.00;;;27.73;41.16
26531;BME280;14201;43.188;24.160;2023-05-23T08:38:27;99434.16;;;27.81;41.45
26531;BME280;14201;43.188;24.160;2023-05-23T08:40:53;99426.13;;;28.11;41.70
26531;BME280;14201;43.188;24.160;2023-05-23T08:43:20;99433.69;;;28.25;41.82
26531;BME280;14201;43.188;24.160;2023-05-23T08:45:48;99428.78;;;28.64;39.16
26531;BME280;14201;43.188;24.160;2023-05-23T08:48:18;99425.56;;;28.80;36.94
26531;BME280;14201;43.188;24.160;2023-05-23T08:50:46;99426.84;;;29.18;36.11
26531;BME280;14201;43.188;24.160;2023-05-23T08:53:14;99426.88;;;29.64;35.31
26531;BME280;14201;43.188;24.160;2023-05-23T08:55:45;99430.84;;;29.77;35.20
26531;BME280;14201;43.188;24.160;2023-05-23T08:58:12;99435.63;;;29.93;34.85
26531;BME280;14201;43.188;24.160;2023-05-23T09:00:38;99437.16;;;28.28;38.88
26531;BME280;14201;43.188;24.160;2023-05-23T09:03:03;99427.41;;;27.41;40.82
26531;BME280;14201;43.188;24.160;2023-05-23T09:05:29;99426.91;;;27.57;41.40
26531;BME280;14201;43.188;24.160;2023-05-23T09:07:55;99418.78;;;28.16;41.41
26531;BME280;14201;43.188;24.160;2023-05-23T09:10:21;99421.34;;;28.73;39.40
26531;BME280;14201;43.188;24.160;2023-05-23T09:12:47;99420.78;;;29.37;43.29
26531;BME280;14201;43.188;24.160;2023-05-23T09:15:12;99417.28;;;28.61;40.26
26531;BME280;14201;43.188;24.160;2023-05-23T09:17:39;99420.34;;;28.23;39.77
26531;BME280;14201;43.188;24.160;2023-05-23T09:20:12;99414.28;;;27.60;42.91
26531;BME280;14201;43.188;24.160;2023-05-23T09:22:38;99417.97;;;27.58;40.64
26531;BME280;14201;43.188;24.160;2023-05-23T09:25:05;99418.06;;;27.25;42.36
26531;BME280;14201;43.188;24.160;2023-05-23T09:27:31;99414.81;;;27.73;40.35
26531;BME280;14201;43.188;24.160;2023-05-23T09:29:56;99416.72;;;28.24;43.51
26531;BME280;14201;43.188;24.160;2023-05-23T09:32:22;99411.56;;;27.92;42.55
26531;BME280;14201;43.188;24.160;2023-05-23T09:34:54;99417.84;;;27.91;43.74
26531;BME280;14201;43.188;24.160;2023-05-23T09:37:21;99416.00;;;27.93;39.13
26531;BME280;14201;43.188;24.160;2023-05-23T09:39:48;99422.59;;;28.09;38.10
26531;BME280;14201;43.188;24.160;2023-05-23T09:42:20;99416.00;;;28.19;36.59
26531;BME280;14201;43.188;24.160;2023-05-23T09:44:47;99411.78;;;28.65;37.77
26531;BME280;14201;43.188;24.160;2023-05-23T09:47:14;99411.53;;;28.97;37.89
26531;BME280;14201;43.188;24.160;2023-05-23T09:49:43;99400.56;;;28.27;38.10
26531;BME280;14201;43.188;24.160;2023-05-23T09:52:09;99406.03;;;28.50;37.17
26531;BME280;14201;43.188;24.160;2023-05-23T09:54:34;99400.97;;;27.88;38.82
26531;BME280;14201;43.188;24.160;2023-05-23T09:57:01;99401.59;;;27.39;38.38
26531;BME280;14201;43.188;24.160;2023-05-23T09:59:30;99397.91;;;27.11;39.59
26531;BME280;14201;43.188;24.160;2023-05-23T10:01:56;99393.94;;;26.95;38.68
26531;BME280;14201;43.188;24.160;2023-05-23T10:04:25;99397.28;;;27.33;41.28
26531;BME280;14201;43.188;24.160;2023-05-23T10:06:56;99403.03;;;27.19;40.94
26531;BME280;14201;43.188;24.160;2023-05-23T10:09:25;99382.09;;;27.04;40.59
26531;BME280;14201;43.188;24.160;2023-05-23T10:14:43;99396.38;;;27.62;39.40
26531;BME280;14201;43.188;24.160;2023-05-23T10:17:35;99390.56;;;27.49;39.17
26531;BME280;14201;43.188;24.160;2023-05-23T10:20:09;99407.88;;;27.38;37.88
26531;BME280;14201;43.188;24.160;2023-05-23T10:22:36;99384.13;;;27.27;36.84
26531;BME280;14201;43.188;24.160;2023-05-23T10:25:03;99388.25;;;27.67;36.92
26531;BME280;14201;43.188;24.160;2023-05-23T10:27:33;99391.94;;;27.91;36.57
26531;BME280;14201;43.188;24.160;2023-05-23T10:29:59;99386.66;;;28.41;36.55
26531;BME280;14201;43.188;24.160;2023-05-23T10:32:26;99383.09;;;28.16;36.70
26531;BME280;14201;43.188;24.160;2023-05-23T10:41:22;99380.56;;;28.63;35.32
26531;BME280;14201;43.188;24.160;2023-05-23T10:43:47;99375.91;;;28.43;35.53
26531;BME280;14201;43.188;24.160;2023-05-23T10:46:19;99381.41;;;29.14;38.65
26531;BME280;14201;43.188;24.160;2023-05-23T10:48:53;99382.97;;;29.89;36.02
26531;BME280;14201;43.188;24.160;2023-05-23T10:51:21;99378.34;;;30.55;33.98
26531;BME280;14201;43.188;24.160;2023-05-23T10:53:52;99377.00;;;30.25;33.79
26531;BME280;14201;43.188;24.160;2023-05-23T10:56:20;99388.13;;;30.15;33.87
26531;BME280;14201;43.188;24.160;2023-05-23T10:58:55;99371.47;;;29.85;34.60
26531;BME280;14201;43.188;24.160;2023-05-23T11:01:23;99365.88;;;29.45;35.17
26531;BME280;14201;43.188;24.160;2023-05-23T11:03:51;99355.25;;;29.42;32.97
26531;BME280;14201;43.188;24.160;2023-05-23T11:06:39;99360.44;;;28.76;38.37
26531;BME280;14201;43.188;24.160;2023-05-23T11:09:18;99354.94;;;28.04;38.01
26531;BME280;14201;43.188;24.160;2023-05-23T11:14:17;99358.81;;;27.37;37.81
26531;BME280;14201;43.188;24.160;2023-05-23T11:16:43;99356.88;;;27.99;39.52
26531;BME280;14201;43.188;24.160;2023-05-23T11:22:00;99356.88;;;27.99;39.63
26531;BME280;14201;43.188;24.160;2023-05-23T11:30:00;99348.44;;;27.56;40.40
26531;BME280;14201;43.188;24.160;2023-05-23T11:32:27;99336.34;;;27.71;37.66
26531;BME280;14201;43.188;24.160;2023-05-23T11:34:54;99337.00;;;27.78;37.41
26531;BME280;14201;43.188;24.160;2023-05-23T11:37:20;99336.88;;;27.82;34.91
26531;BME280;14201;43.188;24.160;2023-05-23T11:39:48;99335.69;;;28.18;34.78
26531;BME280;14201;43.188;24.160;2023-05-23T11:42:13;99328.22;;;28.78;32.15
26531;BME280;14201;43.188;24.160;2023-05-23T11:44:39;99334.81;;;28.93;31.28
26531;BME280;14201;43.188;24.160;2023-05-23T11:47:05;99329.31;;;29.43;35.26
26531;BME280;14201;43.188;24.160;2023-05-23T11:49:34;99336.22;;;29.93;35.84
26531;BME280;14201;43.188;24.160;2023-05-23T11:52:01;99332.66;;;30.35;31.63
26531;BME280;14201;43.188;24.160;2023-05-23T11:54:27;99330.03;;;30.54;34.21
26531;BME280;14201;43.188;24.160;2023-05-23T11:56:54;99319.47;;;30.49;32.35
26531;BME280;14201;43.188;24.160;2023-05-23T11:59:21;99326.31;;;30.15;32.20
26531;BME280;14201;43.188;24.160;2023-05-23T12:01:47;99311.94;;;30.16;32.54
26531;BME280;14201;43.188;24.160;2023-05-23T12:04:13;99317.63;;;29.44;30.53
26531;BME280;14201;43.188;24.160;2023-05-23T12:06:39;99313.31;;;29.18;32.95
26531;BME280;14201;43.188;24.160;2023-05-23T12:09:11;99321.03;;;28.28;34.34
26531;BME280;14201;43.188;24.160;2023-05-23T12:11:38;99304.31;;;28.46;34.01
26531;BME280;14201;43.188;24.160;2023-05-23T12:14:04;99310.78;;;28.41;35.14
26531;BME280;14201;43.188;24.160;2023-05-23T12:16:32;99309.06;;;27.86;32.93
26531;BME280;14201;43.188;24.160;2023-05-23T12:18:59;99300.34;;;28.33;33.04
26531;BME280;14201;43.188;24.160;2023-05-23T12:21:26;99297.25;;;28.69;33.23
26531;BME280;14201;43.188;24.160;2023-05-23T12:23:52;99293.81;;;28.89;33.40
26531;BME280;14201;43.188;24.160;2023-05-23T12:26:17;99290.97;;;28.45;32.30
26531;BME280;14201;43.188;24.160;2023-05-23T12:28:43;99281.84;;;28.25;30.92
26531;BME280;14201;43.188;24.160;2023-05-23T12:31:15;99292.00;;;27.91;31.28
26531;BME280;14201;43.188;24.160;2023-05-23T12:33:42;99284.44;;;28.28;31.90
26531;BME280;14201;43.188;24.160;2023-05-23T12:36:11;99279.97;;;27.76;32.64
26531;BME280;14201;43.188;24.160;2023-05-23T12:38:37;99291.41;;;27.81;30.10
26531;BME280;14201;43.188;24.160;2023-05-23T12:41:15;99286.19;;;27.51;28.84
26531;BME280;14201;43.188;24.160;2023-05-23T12:43:52;99275.53;;;27.76;29.11
26531;BME280;14201;43.188;24.160;2023-05-23T12:46:19;99279.63;;;27.60;30.18
26531;BME280;14201;43.188;24.160;2023-05-23T12:48:45;99271.91;;;27.77;27.59
26531;BME280;14201;43.188;24.160;2023-05-23T12:51:12;99273.59;;;28.32;26.38
26531;BME280;14201;43.188;24.160;2023-05-23T12:53:38;99271.16;;;28.49;28.40
26531;BME280;14201;43.188;24.160;2023-05-23T12:56:04;99270.28;;;28.74;32.91
26531;BME280;14201;43.188;24.160;2023-05-23T12:58:30;99260.47;;;29.20;31.00
26531;BME280;14201;43.188;24.160;2023-05-23T13:00:56;99256.94;;;29.62;31.78
26531;BME280;14201;43.188;24.160;2023-05-23T13:03:22;99260.69;;;29.80;28.48
26531;BME280;14201;43.188;24.160;2023-05-23T13:05:48;99269.03;;;29.30;29.68
26531;BME280;14201;43.188;24.160;2023-05-23T13:08:14;99248.75;;;28.26;30.55
26531;BME280;14201;43.188;24.160;2023-05-23T13:10:40;99240.75;;;28.01;31.22
26531;BME280;14201;43.188;24.160;2023-05-23T13:13:06;99242.47;;;28.04;31.34
26531;BME280;14201;43.188;24.160;2023-05-23T13:15:32;99236.38;;;28.47;29.12